Time;durP1;ratioP1;P1;durP2;ratioP2;P2;SDS_P1;SDS_P2;PMS_P1;PMS_P2;Temp;Humidity;BMP_temperature;BMP_pressure;BME280_temperature;BME280_humidity;BME280_pressure;Samples;Min_cycle;Max_cycle;Signal;HPM_P1;HPM_P2
2021/09/08 00:01:29;;;;;;;0.77;0.77;;;;;;;15.78;100.00;58383.63;6249346;22;20435;-75
2021/09/08 00:03:56;;;;;;;1.10;1.00;;;;;;;15.74;100.00;58048.47;6249075;22;20635;-75
2021/09/08 00:06:24;;;;;;;1.00;1.00;;;;;;;15.79;100.00;58053.59;6249250;22;20471;-75
2021/09/08 00:08:51;;;;;;;0.70;0.60;;;;;;;15.78;100.00;57721.06;6276274;22;20750;-75
2021/09/08 00:11:18;;;;;;;2.27;1.13;;;;;;;15.77;100.00;57389.56;6223705;22;20403;-75
2021/09/08 00:13:47;;;;;;;0.70;0.60;;;;;;;15.72;100.00;57383.97;6276486;22;20721;-75
2021/09/08 00:16:15;;;;;;;0.70;0.60;;;;;;;15.68;100.00;57380.94;6276347;22;20414;-75
2021/09/08 00:18:42;;;;;;;0.70;0.60;;;;;;;15.72;100.00;57053.56;6249995;22;20396;-75
2021/09/08 00:21:09;;;;;;;0.70;0.60;;;;;;;15.71;100.00;56721.66;6249182;22;20441;-75
2021/09/08 00:23:36;;;;;;;0.70;0.60;;;;;;;15.69;100.00;56389.31;6275069;22;20497;-75
2021/09/08 00:26:04;;;;;;;1.57;1.47;;;;;;;15.73;100.00;56392.31;6224052;22;20445;-75
2021/09/08 00:28:31;;;;;;;0.70;0.60;;;;;;;15.74;100.00;56062.47;6249342;22;20388;-75
2021/09/08 00:31:00;;;;;;;0.70;0.60;;;;;;;15.81;100.00;55738.56;6249066;22;20428;-75
2021/09/08 00:33:27;;;;;;;0.70;0.70;;;;;;;15.84;100.00;55741.53;6276614;22;20477;-75
2021/09/08 00:35:54;;;;;;;1.63;1.07;;;;;;;15.80;100.00;55738.09;6249468;22;20388;-75
2021/09/08 00:38:23;;;;;;;0.70;0.60;;;;;;;15.75;100.00;55733.13;6248915;22;20903;-75
2021/09/08 00:40:54;;;;;;;1.40;1.30;;;;;;;15.71;100.00;55729.19;6275983;22;20775;-75
2021/09/08 00:43:23;;;;;;;0.80;0.70;;;;;;;15.64;100.00;55722.75;6248161;22;20391;-75
2021/09/08 00:45:57;;;;;;;0.70;0.60;;;;;;;15.61;100.00;55719.81;6276445;22;20388;-75
2021/09/08 00:48:27;;;;;;;0.80;0.80;;;;;;;15.56;100.00;55384.19;6249835;22;20397;-75
2021/09/08 00:50:56;;;;;;;0.70;0.70;;;;;;;15.52;100.00;55380.25;6248979;22;20405;-75
2021/09/08 00:53:25;;;;;;;0.80;0.70;;;;;;;15.45;100.00;55373.88;6276256;22;20415;-75
2021/09/08 00:55:55;;;;;;;0.80;0.77;;;;;;;15.37;100.00;55366.03;6249681;22;20365;-75
2021/09/08 00:58:22;;;;;;;0.70;0.60;;;;;;;15.34;100.00;55693.16;6275405;22;20407;-75
2021/09/08 01:00:51;;;;;;;0.70;0.60;;;;;;;15.34;100.00;55693.16;6275281;22;20918;-75
2021/09/08 01:03:21;;;;;;;0.70;0.60;;;;;;;15.30;100.00;55689.19;6224823;22;20856;-75
2021/09/08 01:05:50;;;;;;;0.70;0.60;;;;;;;15.29;100.00;55688.72;6275799;22;20959;-75
2021/09/08 01:08:20;;;;;;;0.70;0.60;;;;;;;15.30;100.00;55689.69;6275638;22;20421;-75
2021/09/08 01:10:50;;;;;;;0.70;0.57;;;;;;;15.28;100.00;55687.72;6249361;22;20420;-75
2021/09/08 01:13:19;;;;;;;0.73;0.67;;;;;;;15.33;100.00;55692.16;6248543;22;20398;-75
2021/09/08 01:15:55;;;;;;;0.70;0.60;;;;;;;15.27;100.00;55356.19;6275010;22;20375;-75
2021/09/08 01:18:22;;;;;;;0.80;0.80;;;;;;;15.27;100.00;55356.19;6248649;22;20429;-75
2021/09/08 01:20:51;;;;;;;0.70;0.60;;;;;;;15.22;100.00;55351.31;6249179;22;20469;-75
2021/09/08 01:23:19;;;;;;;0.70;0.60;;;;;;;15.14;100.00;55343.44;6248549;22;20426;-75
2021/09/08 01:25:47;;;;;;;0.70;0.60;;;;;;;15.14;100.00;55343.44;6223806;22;20404;-75
2021/09/08 01:28:14;;;;;;;0.70;0.60;;;;;;;15.13;100.00;55342.47;6250781;22;20388;-75
2021/09/08 01:30:42;;;;;;;1.13;0.87;;;;;;;15.12;100.00;55671.94;6250870;22;20394;-75
2021/09/08 01:33:10;;;;;;;0.70;0.70;;;;;;;15.10;100.00;55670.44;6275835;22;20390;-75
2021/09/08 01:35:39;;;;;;;0.70;0.60;;;;;;;14.99;100.00;55329.22;6276065;22;20381;-75
2021/09/08 01:38:07;;;;;;;0.70;0.60;;;;;;;14.98;100.00;55328.75;6251248;22;20941;-75
2021/09/08 01:40:35;;;;;;;0.70;0.60;;;;;;;14.98;100.00;55659.09;6251925;22;20456;-75
2021/09/08 01:43:03;;;;;;;0.70;0.60;;;;;;;14.98;100.00;55328.22;6280163;22;20395;-75
2021/09/08 01:45:30;;;;;;;0.70;0.60;;;;;;;14.94;100.00;55324.81;6225671;22;20485;-75
2021/09/08 01:47:58;;;;;;;0.70;0.60;;;;;;;14.85;100.00;54985.72;6278394;22;20425;-75
2021/09/08 01:50:26;;;;;;;0.90;0.83;;;;;;;14.90;100.00;54990.09;6277874;22;20396;-75
2021/09/08 01:52:53;;;;;;;1.53;0.90;;;;;;;14.85;100.00;54655.47;6249588;22;20771;-75
2021/09/08 01:55:21;;;;;;;0.70;0.70;;;;;;;14.86;100.00;54656.44;6277866;22;20392;-75
2021/09/08 01:57:49;;;;;;;0.70;0.60;;;;;;;14.81;100.00;54321.44;6250603;22;20385;-75
2021/09/08 02:00:17;;;;;;;0.80;0.80;;;;;;;14.78;100.00;53988.41;6250386;22;20493;-75
2021/09/08 02:02:44;;;;;;;0.70;0.60;;;;;;;14.79;100.00;53988.88;6250687;22;20392;-75
2021/09/08 02:05:16;;;;;;;0.70;0.60;;;;;;;14.77;100.00;53657.34;6277738;22;20393;-75
2021/09/08 02:07:44;;;;;;;0.70;0.60;;;;;;;14.72;100.00;53322.53;6277326;22;20717;-75
2021/09/08 02:10:12;;;;;;;0.70;0.60;;;;;;;14.71;100.00;52992.06;6277250;22;20394;-75
2021/09/08 02:12:42;;;;;;;1.07;0.90;;;;;;;14.67;100.00;52657.91;6277066;22;20472;-75
2021/09/08 02:15:13;;;;;;;0.70;0.60;;;;;;;14.68;100.00;52329.38;6251782;22;20406;-75
2021/09/08 02:17:41;;;;;;;0.70;0.60;;;;;;;14.64;100.00;51995.78;6277357;22;20371;-75
2021/09/08 02:20:09;;;;;;;0.70;0.60;;;;;;;14.64;100.00;51335.72;6250329;22;20880;-75
2021/09/08 02:22:36;;;;;;;0.70;0.60;;;;;;;14.65;100.00;50677.13;6277405;22;20471;-75
2021/09/08 02:25:04;;;;;;;0.70;0.60;;;;;;;14.68;100.00;50350.13;6249806;22;20406;-75
2021/09/08 02:27:31;;;;;;;0.70;0.60;;;;;;;14.71;100.00;50023.09;6276257;22;20389;-75
2021/09/08 02:29:58;;;;;;;0.70;0.60;;;;;;;14.76;100.00;49697.41;6277255;22;20367;-75
2021/09/08 02:32:27;;;;;;;0.70;0.60;;;;;;;14.75;100.00;49367.31;6250493;22;20442;-75
2021/09/08 02:34:54;;;;;;;0.70;0.60;;;;;;;14.74;100.00;48707.22;6249991;22;20400;-75
2021/09/08 02:37:21;;;;;;;1.20;1.10;;;;;;;14.68;100.00;48372.47;6250024;22;20899;-75
2021/09/08 02:39:48;;;;;;;0.70;0.60;;;;;;;14.67;100.00;48042.13;6277724;22;20388;-75
2021/09/08 02:42:15;;;;;;;1.93;1.83;;;;;;;14.62;100.00;47379.00;6249943;22;20821;-75
2021/09/08 02:44:43;;;;;;;0.70;0.70;;;;;;;14.57;100.00;47045.81;6276470;22;20434;-75
2021/09/08 02:47:10;;;;;;;2.30;2.20;;;;;;;14.54;100.00;46713.97;6278204;22;20783;-75
2021/09/08 02:49:38;;;;;;;0.70;0.60;;;;;;;14.50;100.00;46381.41;6277338;22;20374;-75
2021/09/08 02:52:06;;;;;;;0.70;0.60;;;;;;;14.57;100.00;46057.56;6277757;22;20385;-75
2021/09/08 02:54:32;;;;;;;0.70;0.60;;;;;;;14.45;100.00;45719.31;6250041;22;20892;-75
2021/09/08 02:57:03;;;;;;;0.70;0.60;;;;;;;14.41;100.00;45386.50;6276618;22;20376;-75
2021/09/08 02:59:30;;;;;;;0.70;0.60;;;;;;;14.41;100.00;44728.81;6277613;22;20871;-75
2021/09/08 03:01:58;;;;;;;0.70;0.63;;;;;;;14.41;100.00;44399.81;6249111;22;20445;-75
2021/09/08 03:04:25;;;;;;;0.70;0.60;;;;;;;14.43;100.00;44072.03;6277071;22;20391;-75
2021/09/08 03:06:56;;;;;;;0.70;0.70;;;;;;;14.43;100.00;43743.50;6224851;22;20398;-75
2021/09/08 03:09:23;;;;;;;0.70;0.60;;;;;;;14.40;100.00;43412.25;6249700;22;20899;-75
2021/09/08 03:11:50;;;;;;;0.70;0.60;;;;;;;14.39;100.00;42753.38;6276528;22;20890;-75
2021/09/08 03:14:20;;;;;;;0.70;0.60;;;;;;;14.36;100.00;42093.94;6251137;22;20372;-75
2021/09/08 03:16:47;;;;;;;0.70;0.60;;;;;;;14.36;100.00;41764.81;6250649;22;20752;-75
2021/09/08 03:19:14;;;;;;;1.33;1.23;;;;;;;14.28;100.00;40773.31;6276621;22;20445;-75
2021/09/08 03:21:41;;;;;;;0.70;0.60;;;;;;;14.24;100.00;40113.72;6249449;22;20436;-75
2021/09/08 03:24:10;;;;;;;0.70;0.63;;;;;;;14.22;100.00;39696.22;6276768;22;20459;-75
2021/09/08 03:26:37;;;;;;;0.70;0.63;;;;;;;14.19;100.00;39124.53;6276393;22;20472;-75
2021/09/08 03:29:04;;;;;;;0.70;0.60;;;;;;;14.16;100.00;38381.16;6273745;22;20732;-75
2021/09/08 03:31:31;;;;;;;0.70;0.60;;;;;;;14.14;100.00;37613.06;6249027;22;20399;-75
2021/09/08 03:33:58;;;;;;;0.70;0.60;;;;;;;14.09;100.00;36763.72;6276905;22;20406;-75
2021/09/08 03:36:28;;;;;;;0.70;0.67;;;;;;;14.07;100.00;36101.53;6250848;22;20376;-75
2021/09/08 03:38:55;;;;;;;0.70;0.60;;;;;;;14.05;100.00;35721.00;6248956;22;20423;-75
2021/09/08 03:41:23;;;;;;;0.70;0.60;;;;;;;14.08;100.00;35394.72;6276808;22;20414;-75
2021/09/08 03:43:51;;;;;;;4.87;0.97;;;;;;;14.08;100.00;34587.81;6249043;22;20498;-75
2021/09/08 03:46:18;;;;;;;1.03;0.90;;;;;;;14.09;100.00;33530.78;6276467;22;20368;-75
2021/09/08 03:48:45;;;;;;;0.70;0.57;;;;;;;14.07;100.00;32449.19;6248756;22;20434;-75
2021/09/08 03:51:12;;;;;;;0.70;0.60;;;;;;;13.94;100.00;31620.59;6249341;22;20726;-75
2021/09/08 03:53:39;;;;;;;0.70;0.60;;;;;;;13.94;100.00;30830.13;6276053;22;20458;-75
2021/09/08 03:56:06;;;;;;;0.70;0.60;;;;;;;13.86;100.00;29725.66;6249544;22;20400;-75
2021/09/08 03:58:36;;;;;;;14.80;1.70;;;;;;;13.79;100.00;28362.31;6223484;22;20498;-75
2021/09/08 04:01:04;;;;;;;0.70;0.60;;;;;;;13.77;100.00;27257.53;6249536;22;20438;-75
2021/09/08 04:03:31;;;;;;;0.70;0.50;;;;;;;13.70;100.00;25757.78;6276180;22;20378;-75
2021/09/08 04:05:59;;;;;;;0.70;0.60;;;;;;;13.66;100.00;24642.72;6276323;22;20440;-75
2021/09/08 04:08:26;;;;;;;0.80;0.77;;;;;;;13.64;100.00;23208.16;6276463;22;20514;-75
2021/09/08 04:10:53;;;;;;;0.70;0.60;;;;;;;13.64;100.00;21823.16;6248584;22;20396;-75
2021/09/08 04:13:20;;;;;;;0.70;0.60;;;;;;;13.63;100.00;21004.38;6276433;22;20458;-75
2021/09/08 04:15:49;;;;;;;0.70;0.60;;;;;;;13.64;100.00;20525.78;6249282;22;20414;-75
2021/09/08 04:18:16;;;;;;;0.70;0.60;;;;;;;13.64;100.00;20020.97;6248684;22;20422;-75
2021/09/08 04:20:46;;;;;;;0.70;0.60;;;;;;;13.58;100.00;18867.06;6276547;22;20368;-75
2021/09/08 04:23:13;;;;;;;0.70;0.60;;;;;;;13.57;100.00;17863.25;6249223;22;20448;-75
2021/09/08 04:25:40;;;;;;;0.70;0.70;;;;;;;13.49;100.00;16618.44;6249780;22;20475;-75
2021/09/08 04:28:07;;;;;;;0.70;0.60;;;;;;;13.45;100.00;15334.66;6275806;22;20490;-75
2021/09/08 04:30:34;;;;;;;0.70;0.60;;;;;;;13.45;100.00;14093.28;6276320;22;20389;-75
2021/09/08 04:33:03;;;;;;;2.07;1.97;;;;;;;13.46;100.00;13229.06;6249318;22;20457;-75
2021/09/08 04:35:30;;;;;;;0.70;0.60;;;;;;;13.44;100.00;12374.50;6249088;22;20398;-75
2021/09/08 04:37:59;;;;;;;0.70;0.60;;;;;;;13.43;100.00;11614.38;6275942;22;20399;-75
2021/09/08 04:40:26;;;;;;;0.70;0.60;;;;;;;13.45;100.00;10423.31;6249018;22;20388;-75
2021/09/08 04:42:53;;;;;;;0.70;0.60;;;;;;;13.41;100.00;9025.63;6275677;22;20411;-75
2021/09/08 04:45:21;;;;;;;0.80;0.70;;;;;;;13.39;100.00;7512.28;6249056;22;20946;-75
2021/09/08 04:47:48;;;;;;;0.83;0.73;;;;;;;13.36;100.00;6126.56;6249813;22;20410;-75
2021/09/08 04:50:16;;;;;;;0.70;0.60;;;;;;;13.31;100.00;4776.69;6275771;22;20772;-75
2021/09/08 04:52:43;;;;;;;1.10;1.00;;;;;;;13.31;100.00;3656.28;6275777;22;20408;-75
2021/09/08 04:55:11;;;;;;;0.70;0.60;;;;;;;13.33;100.00;2830.31;6248688;22;20399;-75
2021/09/08 04:57:38;;;;;;;0.70;0.60;;;;;;;13.44;100.00;2241.16;6248399;22;20478;-75
2021/09/08 05:00:06;;;;;;;0.70;0.60;;;;;;;13.47;100.00;1296.44;6275892;22;20440;-75
2021/09/08 05:02:35;;;;;;;0.70;0.60;;;;;;;13.60;100.00;382.97;6278156;22;20434;-75
2021/09/08 05:05:03;;;;;;;0.70;0.60;;;;;;;13.65;100.00;-379.03;6278087;22;20400;-74
2021/09/08 05:07:32;;;;;;;0.70;0.60;;;;;;;13.77;100.00;-1019.16;6251092;22;20417;-73
2021/09/08 05:09:59;;;;;;;0.80;0.70;;;;;;;13.85;100.00;-1472.16;6277346;22;20501;-75
2021/09/08 05:12:27;;;;;;;0.70;0.60;;;;;;;13.86;100.00;-1978.59;6278003;22;20375;-75
2021/09/08 05:14:54;;;;;;;0.70;0.60;;;;;;;13.82;100.00;-2601.59;6250710;22;20462;-75
2021/09/08 05:17:25;;;;;;;0.70;0.60;;;;;;;13.72;100.00;-3766.00;6250702;22;20399;-75
2021/09/08 05:19:51;;;;;;;0.70;0.60;;;;;;;13.65;100.00;-5033.34;6278784;22;20394;-75
2021/09/08 05:22:19;;;;;;;0.70;0.70;;;;;;;13.68;100.00;-6027.22;6251043;22;20411;-74
2021/09/08 05:24:47;;;;;;;0.70;0.60;;;;;;;13.68;100.00;-6997.97;6276137;22;20405;-75
2021/09/08 05:27:14;;;;;;;0.70;0.60;;;;;;;13.69;100.00;-8003.91;6276419;22;20391;-75
2021/09/08 05:29:41;;;;;;;0.70;0.70;;;;;;;13.72;100.00;-8807.66;6277110;22;20391;-75
2021/09/08 05:32:08;;;;;;;0.70;0.60;;;;;;;13.78;100.00;-9538.19;6251262;22;20422;-75
2021/09/08 05:34:35;;;;;;;0.70;0.70;;;;;;;13.80;100.00;-10096.56;6249911;22;20863;-75
2021/09/08 05:37:03;;;;;;;1.63;1.00;;;;;;;13.84;100.00;-10541.47;6251389;22;20418;-75
2021/09/08 05:39:30;;;;;;;1.73;1.63;;;;;;;13.90;100.00;-10981.63;6251188;22;20403;-75
2021/09/08 05:41:59;;;;;;;0.70;0.70;;;;;;;13.98;100.00;-12169.44;6251319;22;20471;-75
2021/09/08 05:44:26;;;;;;;0.70;0.60;;;;;;;14.06;100.00;-13013.66;6276569;22;20420;-74
2021/09/08 05:46:56;;;;;;;0.70;0.60;;;;;;;14.15;100.00;-13237.16;6277636;22;20458;-75
2021/09/08 05:49:23;;;;;;;0.70;0.70;;;;;;;14.27;100.00;-13393.03;6277244;22;20475;-75
2021/09/08 05:51:51;;;;;;;0.70;0.70;;;;;;;14.31;100.00;-13370.81;6277289;22;20400;-75
2021/09/08 05:54:18;;;;;;;0.70;0.57;;;;;;;14.44;100.00;-13130.22;6277903;22;20486;-75
2021/09/08 05:56:45;;;;;;;0.70;0.60;;;;;;;14.58;100.00;-12811.38;6277548;22;20371;-75
2021/09/08 05:59:13;;;;;;;0.70;0.60;;;;;;;14.74;100.00;-12492.53;6250481;22;20376;-75
2021/09/08 06:01:40;;;;;;;0.80;0.80;;;;;;;14.83;100.00;-12020.97;6277202;22;20463;-75
2021/09/08 06:04:08;;;;;;;0.70;0.63;;;;;;;15.04;100.00;-11378.56;6224862;22;20395;-74
2021/09/08 06:06:34;;;;;;;0.70;0.60;;;;;;;15.17;100.00;-10719.53;6277024;22;20436;-75
2021/09/08 06:09:02;;;;;;;0.80;0.80;;;;;;;15.29;100.00;-10125.91;6277250;22;20807;-75
2021/09/08 06:11:29;;;;;;;0.70;0.70;;;;;;;15.42;100.00;-9281.25;6277629;22;20417;-75
2021/09/08 06:13:56;;;;;;;0.70;0.60;;;;;;;15.55;100.00;-8451.19;6249783;22;20401;-75
2021/09/08 06:16:25;;;;;;;0.70;0.70;;;;;;;15.70;100.00;-7534.50;6277762;22;20375;-75
2021/09/08 06:18:52;;;;;;;0.70;0.60;;;;;;;15.85;100.00;-6320.28;6225139;22;20445;-75
2021/09/08 06:21:21;;;;;;;0.70;0.60;;;;;;;16.05;100.00;-4767.44;6224753;22;20443;-75
2021/09/08 06:23:48;;;;;;;0.80;0.70;;;;;;;16.21;100.00;-3479.69;6276516;22;20775;-75
2021/09/08 06:26:15;;;;;;;0.80;0.70;;;;;;;16.40;100.00;-1651.66;6224876;22;20405;-75
2021/09/08 06:28:42;;;;;;;1.77;0.80;;;;;;;16.66;100.00;133.22;6250811;22;20476;-75
2021/09/08 06:31:10;;;;;;;1.40;1.30;;;;;;;16.78;100.00;1919.16;6250115;22;20475;-75
2021/09/08 06:33:39;;;;;;;0.90;0.90;;;;;;;16.94;100.00;3786.19;6250510;22;20386;-75
2021/09/08 06:36:06;;;;;;;8.43;1.23;;;;;;;17.18;100.00;5794.38;6250466;22;20403;-75
2021/09/08 06:38:33;;;;;;;0.70;0.63;;;;;;;17.35;100.00;7530.88;6276893;22;20797;-75
2021/09/08 06:41:00;;;;;;;0.70;0.70;;;;;;;17.47;100.00;9060.94;6249238;22;20410;-75
2021/09/08 06:43:27;;;;;;;0.70;0.60;;;;;;;17.63;100.00;10409.13;6276775;22;20410;-75
2021/09/08 06:45:54;;;;;;;0.70;0.60;;;;;;;17.77;100.00;11968.00;6249985;22;20408;-75
2021/09/08 06:48:22;;;;;;;0.70;0.70;;;;;;;18.01;100.00;13141.69;6277221;22;20422;-75
2021/09/08 06:50:50;;;;;;;0.70;0.60;;;;;;;18.14;100.00;14272.59;6277173;22;20459;-75
2021/09/08 06:53:17;;;;;;;0.70;0.60;;;;;;;18.34;100.00;14555.50;6277276;22;20494;-75
2021/09/08 06:55:44;;;;;;;0.80;0.70;;;;;;;18.46;100.00;12926.13;6249928;22;20877;-75
2021/09/08 06:58:13;;;;;;;0.70;0.60;;;;;;;18.69;100.00;9209.91;6276347;22;20432;-75
2021/09/08 07:00:40;;;;;;;0.80;0.70;;;;;;;18.80;100.00;720.50;6276782;22;20404;-75
2021/09/08 07:03:07;;;;;;;1.07;0.97;;;;;;;18.94;100.00;-14890.63;6276525;22;20421;-75
2021/09/08 07:05:35;;;;;;;0.70;0.60;;;;;;;19.17;100.00;-21201.47;6249560;22;20405;-75
2021/09/08 07:08:05;;;;;;;0.70;0.70;;;;;;;19.37;100.00;-21206.66;6277061;22;20405;-75
2021/09/08 07:10:32;;;;;;;1.20;1.07;;;;;;;19.58;100.00;-21212.41;6276957;22;20684;-75
2021/09/08 07:12:59;;;;;;;2.63;1.60;;;;;;;19.88;100.00;-21220.34;6276568;22;20696;-75
2021/09/08 07:15:26;;;;;;;0.70;0.60;;;;;;;19.72;100.00;-21216.25;6249598;22;20403;-76
2021/09/08 07:17:54;;;;;;;6.00;1.10;;;;;;;19.83;100.00;-21218.97;6275555;22;20371;-75
2021/09/08 07:20:23;;;;;;;1.00;0.83;;;;;;;20.00;100.00;-21223.63;6274585;22;20848;-75
2021/09/08 07:22:50;;;;;;;0.90;0.80;;;;;;;19.89;100.00;-21220.75;6249202;22;20445;-75
2021/09/08 07:25:18;;;;;;;1.33;1.23;;;;;;;20.05;100.00;-21224.97;6249238;22;20471;-75
2021/09/08 07:27:46;;;;;;;0.80;0.70;;;;;;;20.15;100.00;-21227.72;6276283;22;20379;-75
2021/09/08 07:30:12;;;;;;;0.70;0.70;;;;;;;20.30;100.00;-21231.69;6277007;22;20375;-75
2021/09/08 07:32:40;;;;;;;1.20;1.00;;;;;;;20.43;100.00;-21235.22;6249618;22;20397;-75
2021/09/08 07:35:09;;;;;;;1.00;0.80;;;;;;;20.65;100.00;-21241.09;6249439;22;20418;-75
2021/09/08 07:37:37;;;;;;;1.30;1.20;;;;;;;20.97;100.00;-21249.56;6248871;22;20426;-75
2021/09/08 07:40:08;;;;;;;0.80;0.70;;;;;;;21.80;100.00;-21271.78;6250310;22;20828;-75
2021/09/08 07:42:37;;;;;;;0.80;0.70;;;;;;;22.02;100.00;-21277.66;6277100;22;20410;-75
2021/09/08 07:45:06;;;;;;;0.80;0.70;;;;;;;22.61;100.00;-21293.31;6276571;22;20951;-75
2021/09/08 07:47:34;;;;;;;0.90;0.80;;;;;;;22.78;100.00;-21297.81;6276510;22;20375;-76
2021/09/08 07:50:01;;;;;;;0.77;0.70;;;;;;;22.65;100.00;-21294.53;6276265;22;20371;-75
2021/09/08 07:52:28;;;;;;;1.33;1.23;;;;;;;22.84;100.00;-21299.44;6250179;22;20372;-76
2021/09/08 07:54:55;;;;;;;0.70;0.60;;;;;;;22.65;100.00;-21294.53;6276089;22;20364;-75
2021/09/08 07:57:23;;;;;;;1.47;1.37;;;;;;;22.80;100.00;-21298.34;6275502;22;20334;-75
2021/09/08 07:59:51;;;;;;;1.00;0.80;;;;;;;23.11;100.00;-21306.66;6249109;22;20401;-75
2021/09/08 08:02:18;;;;;;;1.17;1.07;;;;;;;23.03;100.00;-21304.63;6249944;22;20817;-75
2021/09/08 08:04:45;;;;;;;0.80;0.80;;;;;;;23.36;100.00;-21313.31;6249790;22;20403;-75
2021/09/08 08:07:12;;;;;;;0.80;0.70;;;;;;;23.52;100.00;-21317.66;6276005;22;20350;-74
2021/09/08 08:09:41;;;;;;;0.80;0.70;;;;;;;23.59;100.00;-21319.56;6276308;22;20839;-75
2021/09/08 08:12:09;;;;;;;0.80;0.70;;;;;;;23.48;100.00;-21316.44;6249070;22;20403;-75
2021/09/08 08:14:36;;;;;;;1.97;1.87;;;;;;;23.66;100.00;-21321.19;6275514;22;20360;-75
2021/09/08 08:17:05;;;;;;;1.13;1.03;;;;;;;23.70;100.00;-21322.28;6249740;22;20392;-75
2021/09/08 08:19:33;;;;;;;1.00;0.90;;;;;;;23.77;100.00;-21324.31;6249934;22;20367;-75
2021/09/08 08:22:03;;;;;;;1.30;1.03;;;;;;;23.66;100.00;-21321.19;6276790;22;20361;-75
2021/09/08 08:24:31;;;;;;;0.80;0.80;;;;;;;23.56;100.00;-21318.75;6276020;22;20738;-75
2021/09/08 08:27:00;;;;;;;1.47;0.80;;;;;;;23.71;100.00;-21322.56;6249683;22;20702;-75
2021/09/08 08:29:27;;;;;;;1.20;0.93;;;;;;;23.94;100.00;-21328.81;6223551;22;20409;-75
2021/09/08 08:31:54;;;;;;;1.33;0.80;;;;;;;24.00;100.00;-21330.44;6276293;22;20412;-75
2021/09/08 08:34:23;;;;;;;0.80;0.60;;;;;;;24.41;100.00;-21341.31;6275648;22;20394;-75
2021/09/08 08:36:50;;;;;;;0.83;0.70;;;;;;;24.70;100.00;-21348.91;6251196;22;20384;-75
2021/09/08 08:39:17;;;;;;;1.33;1.23;;;;;;;24.86;100.00;-21353.13;6278278;22;20466;-75
2021/09/08 08:41:45;;;;;;;1.33;1.23;;;;;;;25.16;100.00;-21361.13;6251177;22;20395;-75
2021/09/08 08:44:13;;;;;;;0.80;0.70;;;;;;;25.51;100.00;-21370.59;6278012;22;20442;-75
2021/09/08 08:46:40;;;;;;;0.80;0.80;;;;;;;26.04;100.00;-21384.44;6250742;22;20726;-74
2021/09/08 08:49:07;;;;;;;2.00;1.80;;;;;;;26.18;100.00;-21388.22;6277982;22;20383;-74
2021/09/08 08:51:35;;;;;;;2.40;0.90;;;;;;;26.50;100.00;-21396.75;6277892;22;20375;-72
2021/09/08 08:54:04;;;;;;;0.90;0.70;;;;;;;26.71;100.00;-21402.44;6277850;22;20398;-72
2021/09/08 08:56:31;;;;;;;0.80;0.50;;;;;;;26.86;100.00;-21406.34;6278112;22;20913;-73
2021/09/08 08:58:58;;;;;;;2.90;1.30;;;;;;;27.20;100.00;-21415.28;6277710;22;20375;-73
2021/09/08 09:01:26;;;;;;;1.77;1.10;;;;;;;28.32;100.00;-21444.88;6277426;22;20398;-73
2021/09/08 09:03:59;;;;;;;1.63;0.97;;;;;;;29.25;100.00;-21469.53;6277646;22;20780;-73
2021/09/08 09:06:27;;;;;;;1.53;0.90;;;;;;;29.08;100.00;-21464.97;6277944;22;20451;-73
2021/09/08 09:09:02;;;;;;;0.80;0.70;;;;;;;29.59;100.00;-21478.56;6250347;22;20526;-73
2021/09/08 09:11:29;;;;;;;0.90;0.73;;;;;;;29.71;100.00;-21481.53;6277320;22;20371;-73
2021/09/08 09:13:56;;;;;;;2.90;0.80;;;;;;;29.65;100.00;-21480.06;6276545;22;20711;-73
2021/09/08 09:16:26;;;;;;;1.60;0.80;;;;;;;29.86;100.00;-21485.56;6251401;22;20816;-73
2021/09/08 09:18:54;;;;;;;1.10;0.97;;;;;;;29.42;100.00;-21473.84;6249915;22;20393;-73
2021/09/08 09:21:24;;;;;;;1.23;1.00;;;;;;;29.93;100.00;-21487.31;6278274;22;20386;-73
2021/09/08 09:23:54;;;;;;;1.33;1.03;;;;;;;29.90;100.00;-21486.50;6278018;22;20530;-73
2021/09/08 09:26:23;;;;;;;0.80;0.57;;;;;;;29.51;100.00;-21476.28;6277491;22;20409;-73
2021/09/08 09:28:52;;;;;;;1.33;1.07;;;;;;;30.16;100.00;-21493.50;6277131;22;20372;-73
2021/09/08 09:31:22;;;;;;;1.00;0.90;;;;;;;30.12;100.00;-21492.44;6278205;22;20398;-73
2021/09/08 09:33:53;;;;;;;4.10;1.83;;;;;;;30.46;100.00;-21501.44;6251244;22;20364;-73
2021/09/08 09:36:22;;;;;;;2.40;1.43;;;;;;;30.72;100.00;-21508.31;6251038;22;20794;-73
2021/09/08 09:38:52;;;;;;;1.43;1.33;;;;;;;30.74;100.00;-21508.72;6277616;22;20407;-73
2021/09/08 09:41:29;;;;;;;1.27;0.87;;;;;;;31.27;100.00;-21522.81;6276905;22;20378;-73
2021/09/08 09:44:04;;;;;;;1.37;1.27;;;;;;;30.71;100.00;-21507.91;6250023;22;20410;-74
2021/09/08 09:46:31;;;;;;;1.13;0.63;;;;;;;31.02;100.00;-21516.09;6249596;22;20406;-74
2021/09/08 09:49:00;;;;;;;0.90;0.70;;;;;;;30.79;100.00;-21510.06;6250213;22;20481;-73
2021/09/08 09:51:28;;;;;;;1.37;1.27;;;;;;;31.26;100.00;-21522.41;6225257;22;20795;-74
2021/09/08 09:53:55;;;;;;;2.83;0.80;;;;;;;31.86;100.00;-21538.13;6276779;22;20402;-74
2021/09/08 09:56:23;;;;;;;0.90;0.60;;;;;;;31.87;100.00;-21538.53;6249287;22;20423;-74
2021/09/08 09:58:51;;;;;;;1.77;1.10;;;;;;;31.74;100.00;-21535.16;6277537;22;20371;-73
2021/09/08 10:01:19;;;;;;;1.33;0.60;;;;;;;32.07;100.00;-21543.75;6249851;22;20422;-74
2021/09/08 10:03:47;;;;;;;1.63;1.33;;;;;;;32.16;100.00;-21546.16;6276034;22;20410;-74
2021/09/08 10:06:15;;;;;;;1.80;1.63;;;;;;;31.97;100.00;-21541.06;6275401;22;20371;-74
2021/09/08 10:08:47;;;;;;;1.53;1.43;;;;;;;31.69;100.00;-21533.69;6250857;22;20928;-74
2021/09/08 10:11:18;;;;;;;1.07;0.97;;;;;;;30.60;100.00;-21505.09;6277249;22;20442;-74
2021/09/08 10:13:54;;;;;;;1.07;0.73;;;;;;;30.51;100.00;-21502.66;6252303;22;20693;-74
2021/09/08 10:16:22;;;;;;;1.20;1.10;;;;;;;31.21;100.00;-21521.22;6251104;22;20458;-74
2021/09/08 10:18:50;;;;;;;0.83;0.57;;;;;;;31.36;100.00;-21525.09;6277387;22;20804;-74
2021/09/08 10:21:21;;;;;;;1.80;1.40;;;;;;;30.85;100.00;-21511.53;6277028;22;20457;-74
2021/09/08 10:23:55;;;;;;;2.00;0.97;;;;;;;31.75;100.00;-21535.44;6250870;22;20497;-73
2021/09/08 10:26:29;;;;;;;1.30;0.70;;;;;;;31.94;100.00;-21540.28;6250548;22;20412;-74
2021/09/08 10:29:06;;;;;;;1.20;1.10;;;;;;;31.51;100.00;-21529.13;6277482;22;20409;-73
2021/09/08 10:31:36;;;;;;;1.37;0.80;;;;;;;31.74;100.00;-21535.03;6276770;22;20367;-73
2021/09/08 10:34:05;;;;;;;0.90;0.70;;;;;;;32.19;100.00;-21546.84;6277152;22;20367;-74
2021/09/08 10:36:33;;;;;;;0.93;0.83;;;;;;;32.21;100.00;-21547.50;6250051;22;20802;-74
2021/09/08 10:39:04;;;;;;;3.33;0.70;;;;;;;31.81;100.00;-21536.91;6276686;22;20449;-74
2021/09/08 10:41:41;;;;;;;1.17;0.77;;;;;;;32.26;100.00;-21548.59;6277321;22;20389;-74
2021/09/08 10:44:11;;;;;;;1.47;1.37;;;;;;;32.38;100.00;-21551.81;6249915;22;20413;-74
2021/09/08 10:46:55;;;;;;;0.80;0.60;;;;;;;32.70;100.00;-21560.38;6277456;22;20414;-73
2021/09/08 10:49:50;;;;;;;1.17;1.07;;;;;;;32.46;100.00;-21553.94;6277191;22;20374;-74
2021/09/08 10:52:40;;;;;;;1.53;0.80;;;;;;;32.05;100.00;-21543.22;6276153;22;20432;-74
2021/09/08 10:55:23;;;;;;;0.90;0.77;;;;;;;31.74;100.00;-21535.16;6277439;22;20377;-74
2021/09/08 10:57:59;;;;;;;0.97;0.80;;;;;;;32.09;100.00;-21544.16;6276958;22;20371;-74
2021/09/08 11:00:38;;;;;;;1.90;1.10;;;;;;;32.08;100.00;-21544.03;6276345;22;20375;-74
2021/09/08 11:03:09;;;;;;;1.00;0.87;;;;;;;31.80;100.00;-21536.50;6249938;22;20452;-73
2021/09/08 11:05:47;;;;;;;1.20;0.90;;;;;;;31.34;100.00;-21524.44;6249603;22;20730;-74
2021/09/08 11:08:36;;;;;;;1.20;0.80;;;;;;;32.26;100.00;-21548.59;6249119;22;20765;-74
2021/09/08 11:11:06;;;;;;;1.57;1.47;;;;;;;31.97;100.00;-21541.06;6264739;22;20457;-74
2021/09/08 11:13:33;;;;;;;0.80;0.60;;;;;;;32.75;100.00;-21561.59;6275413;22;20372;-73
2021/09/08 11:16:15;;;;;;;1.10;0.73;;;;;;;31.97;100.00;-21541.22;6276703;22;20713;-74
2021/09/08 11:18:43;;;;;;;1.13;0.60;;;;;;;32.15;100.00;-21545.91;6276638;22;20379;-73
2021/09/08 11:21:11;;;;;;;1.00;0.63;;;;;;;32.11;100.00;-21544.84;6276801;22;20368;-74
2021/09/08 11:23:39;;;;;;;1.27;1.17;;;;;;;31.76;100.00;-21535.72;6250423;22;20907;-73
2021/09/08 11:26:09;;;;;;;1.00;0.90;;;;;;;31.78;100.00;-21536.13;6276243;22;20387;-74
2021/09/08 11:28:37;;;;;;;0.90;0.63;;;;;;;31.72;100.00;-21534.50;6248289;22;20883;-73